Terminal Aerodrome Forecast
Issued by NWS Melbourne, FL

Home | Current Version | Previous Version | Text Only | Print | Product List | Glossary On
Versions: 1 2 3 4 5 6 7 8 9 10 11 12 13 14
000
FTUS42 KMLB 012300 RRA
TAFVRB
TAF
KVRB 012342Z 0200/0224 11007KT P6SM VCSH FEW030
     FM020400 VRB03KT P6SM VCSH FEW030
     FM021400 09009KT P6SM SCT025=

USA.gov is the U.S. government's official web portal to all federal, state and local government web resources and services.